Time;durP1;ratioP1;P1;durP2;ratioP2;P2;SDS_P1;SDS_P2;PMS_P1;PMS_P2;Temp;Humidity;BMP_temperature;BMP_pressure;BME280_temperature;BME280_humidity;BME280_pressure;Samples;Min_cycle;Max_cycle;Signal;HPM_P1;HPM_P2
2024/01/15 00:01:24;;;;;;;3.03;1.80;;;;;;;1.87;100.00;99269.06;6169326;28;20825;-68
2024/01/15 00:04:45;;;;;;;4.53;2.50;;;;;;;1.89;100.00;99256.50;6180777;28;20229;-67
2024/01/15 00:08:07;;;;;;;2.50;1.70;;;;;;;1.89;100.00;99257.34;6177734;28;20310;-68
2024/01/15 00:11:28;;;;;;;3.53;1.90;;;;;;;1.90;100.00;99250.22;6177117;28;20229;-68
2024/01/15 00:14:49;;;;;;;3.23;1.40;;;;;;;1.86;100.00;99254.91;6181852;28;21809;-68
2024/01/15 00:18:11;;;;;;;2.63;1.63;;;;;;;1.77;100.00;99249.50;6182334;28;20248;-68
2024/01/15 00:21:32;;;;;;;3.87;1.50;;;;;;;1.61;100.00;99249.84;6151627;28;20225;-68
2024/01/15 00:24:53;;;;;;;6.33;2.70;;;;;;;1.54;100.00;99240.69;6177897;28;20320;-67
2024/01/15 00:28:14;;;;;;;13.93;2.23;;;;;;;1.61;100.00;99239.22;6174176;28;20661;-67
2024/01/15 00:31:35;;;;;;;4.27;2.13;;;;;;;1.68;100.00;99234.28;6172275;28;20911;-68
2024/01/15 00:34:57;;;;;;;4.30;2.83;;;;;;;1.70;100.00;99227.03;6183887;28;20233;-67
2024/01/15 00:38:18;;;;;;;6.33;3.03;;;;;;;1.66;100.00;99205.19;6176853;28;20222;-67
2024/01/15 00:41:39;;;;;;;6.73;2.23;;;;;;;1.72;100.00;99210.03;6168645;28;20226;-68
2024/01/15 00:45:00;;;;;;;1.53;1.43;;;;;;;1.68;100.00;99210.38;6175774;28;20348;-68
2024/01/15 00:48:21;;;;;;;4.93;2.13;;;;;;;1.73;100.00;99200.25;6171740;28;20569;-70
2024/01/15 00:51:43;;;;;;;9.40;3.00;;;;;;;1.58;100.00;99197.84;6172719;28;20301;-69
2024/01/15 00:55:05;;;;;;;5.00;2.23;;;;;;;1.58;100.00;99187.22;6179402;28;20225;-68
2024/01/15 00:58:26;;;;;;;9.17;2.70;;;;;;;1.68;100.00;99200.63;6184160;28;20250;-68
2024/01/15 01:01:47;;;;;;;3.40;3.10;;;;;;;1.58;100.00;99199.66;6171282;28;20238;-69
2024/01/15 01:05:08;;;;;;;3.30;2.20;;;;;;;1.53;100.00;99192.06;6179634;28;20226;-67
2024/01/15 01:08:30;;;;;;;4.20;2.60;;;;;;;1.56;100.00;99169.72;6179848;28;20336;-68
2024/01/15 01:11:51;;;;;;;6.07;3.43;;;;;;;1.71;100.00;99165.00;6183484;28;20627;-68
2024/01/15 01:15:12;;;;;;;3.53;2.83;;;;;;;1.70;100.00;99155.34;6180133;28;20309;-67
2024/01/15 01:18:33;;;;;;;2.27;1.73;;;;;;;1.79;100.00;99151.97;6176108;28;20563;-68
2024/01/15 01:21:54;;;;;;;4.30;2.47;;;;;;;1.84;100.00;99136.47;6168757;28;20271;-68
2024/01/15 01:25:16;;;;;;;4.40;2.27;;;;;;;1.88;100.00;99136.09;6177148;28;20237;-68
2024/01/15 01:28:37;;;;;;;2.60;2.10;;;;;;;1.96;100.00;99140.81;6181263;28;20671;-68
2024/01/15 01:31:58;;;;;;;2.27;2.07;;;;;;;1.98;100.00;99121.09;6173488;28;20330;-67
2024/01/15 01:35:19;;;;;;;4.47;2.10;;;;;;;2.02;100.00;99117.25;6174945;28;20238;-68
2024/01/15 01:38:41;;;;;;;7.00;1.80;;;;;;;1.94;100.00;99158.69;6182577;28;20234;-68
2024/01/15 01:42:03;;;;;;;4.37;1.97;;;;;;;1.99;100.00;99132.56;6176833;28;20316;-67
2024/01/15 01:45:24;;;;;;;7.60;2.30;;;;;;;1.99;100.00;99153.84;6173141;28;20715;-68
2024/01/15 01:48:45;;;;;;;9.80;3.40;;;;;;;2.00;100.00;99123.66;6186125;28;20229;-68
2024/01/15 01:52:06;;;;;;;5.03;2.07;;;;;;;2.02;100.00;99109.28;6168810;28;20616;-68
2024/01/15 01:55:30;;;;;;;2.13;1.87;;;;;;;2.03;100.00;99126.03;6177840;28;20862;-68
2024/01/15 01:58:52;;;;;;;4.73;3.63;;;;;;;2.01;100.00;99122.66;6192380;28;20234;-69
2024/01/15 02:02:13;;;;;;;3.73;2.70;;;;;;;1.99;100.00;99119.28;6164637;28;20238;-68
2024/01/15 02:05:36;;;;;;;3.37;1.93;;;;;;;1.97;100.00;99099.97;6164914;28;20610;-68
2024/01/15 02:08:57;;;;;;;3.30;1.60;;;;;;;1.96;100.00;99136.31;6188305;28;20229;-68
2024/01/15 02:12:18;;;;;;;3.60;2.20;;;;;;;2.05;100.00;99090.41;6183053;28;20249;-68
2024/01/15 02:15:40;;;;;;;10.87;4.13;;;;;;;2.04;100.00;99114.47;6182390;28;20234;-68
2024/01/15 02:19:01;;;;;;;4.03;1.90;;;;;;;1.86;100.00;99114.13;6181061;28;20226;-68
2024/01/15 02:22:22;;;;;;;2.53;1.97;;;;;;;1.77;100.00;99106.94;6171667;28;20241;-67
2024/01/15 02:25:46;;;;;;;3.40;1.83;;;;;;;1.78;100.00;99113.91;6179687;28;20234;-68
2024/01/15 02:29:08;;;;;;;3.10;1.57;;;;;;;1.79;100.00;99112.13;6180473;28;20226;-67
2024/01/15 02:32:29;;;;;;;1.77;1.40;;;;;;;2.05;100.00;99126.75;6174234;28;20305;-68
2024/01/15 02:35:50;;;;;;;7.70;1.60;;;;;;;2.18;100.00;99119.47;6184016;28;20585;-69
2024/01/15 02:39:11;;;;;;;3.47;1.90;;;;;;;2.17;100.00;99133.75;6181969;28;20849;-68
2024/01/15 02:42:34;;;;;;;3.60;2.07;;;;;;;1.96;100.00;99123.03;6173397;28;20229;-68
2024/01/15 02:45:55;;;;;;;6.97;2.47;;;;;;;2.04;100.00;99128.59;6178487;28;20253;-67
2024/01/15 02:49:16;;;;;;;11.93;3.20;;;;;;;2.05;100.00;99110.81;6175999;28;20234;-68
2024/01/15 02:52:37;;;;;;;6.40;2.60;;;;;;;2.05;100.00;99116.97;6173758;28;20234;-68
2024/01/15 02:55:58;;;;;;;3.70;1.93;;;;;;;2.10;100.00;99125.44;6175030;28;20265;-68
2024/01/15 02:59:20;;;;;;;4.47;2.20;;;;;;;2.21;100.00;99132.53;6176122;28;20230;-68
2024/01/15 03:02:43;;;;;;;6.73;4.27;;;;;;;2.20;100.00;99110.41;6157686;28;20237;-67
2024/01/15 03:06:05;;;;;;;2.73;2.47;;;;;;;2.16;100.00;99124.06;6177166;28;20229;-68
2024/01/15 03:09:26;;;;;;;4.60;1.80;;;;;;;2.18;100.00;99122.13;6189706;28;20257;-68
2024/01/15 03:12:47;;;;;;;2.70;2.30;;;;;;;2.17;100.00;99125.78;6179211;28;20710;-68
2024/01/15 03:16:09;;;;;;;3.77;2.37;;;;;;;2.30;100.00;99121.09;6175044;28;20234;-68
2024/01/15 03:19:30;;;;;;;7.57;2.37;;;;;;;2.32;100.00;99129.78;6179380;28;20230;-68
2024/01/15 03:22:51;;;;;;;4.80;2.60;;;;;;;2.39;100.00;99134.50;6173133;28;20242;-68
2024/01/15 03:26:12;;;;;;;3.00;1.97;;;;;;;2.34;100.00;99135.81;6176422;28;20556;-68
2024/01/15 03:29:33;;;;;;;2.80;2.23;;;;;;;2.18;100.00;99138.94;6179909;28;20232;-68
2024/01/15 03:32:55;;;;;;;3.07;1.53;;;;;;;2.34;100.00;99130.50;6172534;28;20242;-68
2024/01/15 03:36:16;;;;;;;9.17;3.77;;;;;;;2.39;100.00;99141.63;6176546;28;20241;-67
2024/01/15 03:39:37;;;;;;;3.30;2.20;;;;;;;2.34;100.00;99141.16;6179478;28;20238;-68
2024/01/15 03:42:58;;;;;;;5.20;3.47;;;;;;;2.30;100.00;99137.06;6177763;28;20237;-68
2024/01/15 03:46:19;;;;;;;6.43;2.57;;;;;;;2.17;100.00;99129.25;6175964;28;20257;-70
2024/01/15 03:49:41;;;;;;;3.47;2.93;;;;;;;2.18;100.00;99128.28;6183851;28;20234;-69
2024/01/15 03:53:02;;;;;;;8.97;3.30;;;;;;;2.12;100.00;99142.09;6171815;28;20756;-68
2024/01/15 03:56:23;;;;;;;4.40;2.60;;;;;;;2.11;100.00;99142.19;6178739;28;20308;-68
2024/01/15 03:59:47;;;;;;;6.00;2.40;;;;;;;2.13;100.00;99153.53;6185464;28;20316;-67
2024/01/15 04:03:07;;;;;;;6.57;3.57;;;;;;;2.12;100.00;99150.06;6179140;28;20706;-68
2024/01/15 04:06:30;;;;;;;5.63;2.87;;;;;;;2.11;100.00;99147.50;6177618;28;20235;-69
2024/01/15 04:09:50;;;;;;;11.60;4.33;;;;;;;2.15;100.00;99157.75;6178577;28;20230;-69
2024/01/15 04:13:11;;;;;;;5.77;2.87;;;;;;;2.25;100.00;99155.22;6174934;28;21966;-69
2024/01/15 04:16:32;;;;;;;8.37;3.20;;;;;;;2.33;100.00;99153.63;6174875;28;20225;-69
2024/01/15 04:19:53;;;;;;;8.87;4.50;;;;;;;2.37;100.00;99163.03;6180048;28;22808;-69
2024/01/15 04:23:16;;;;;;;4.33;2.93;;;;;;;2.33;100.00;99158.94;6174625;28;20311;-67
2024/01/15 04:26:37;;;;;;;18.53;3.93;;;;;;;2.37;100.00;99148.88;6179601;28;20225;-69
2024/01/15 04:29:57;;;;;;;7.97;3.60;;;;;;;2.38;100.00;99147.88;6168043;28;20229;-68
2024/01/15 04:33:18;;;;;;;6.87;4.60;;;;;;;2.41;100.00;99158.28;6177751;28;20221;-68
2024/01/15 04:36:40;;;;;;;11.97;5.30;;;;;;;2.45;100.00;99151.75;6174003;28;20221;-68
2024/01/15 04:40:03;;;;;;;8.63;4.83;;;;;;;2.48;100.00;99154.16;6181487;28;20234;-68
2024/01/15 04:43:24;;;;;;;7.30;5.23;;;;;;;2.54;100.00;99161.63;6176090;28;20242;-68
2024/01/15 04:46:45;;;;;;;12.27;6.03;;;;;;;2.53;100.00;99143.97;6165829;28;20231;-68
2024/01/15 04:50:07;;;;;;;10.43;3.17;;;;;;;2.54;100.00;99144.81;6172389;28;20610;-69
2024/01/15 04:53:28;;;;;;;13.47;6.23;;;;;;;2.54;100.00;99150.97;6187248;28;20233;-68
2024/01/15 04:56:50;;;;;;;11.40;4.63;;;;;;;2.55;100.00;99151.81;6183274;28;20234;-68
2024/01/15 05:00:13;;;;;;;13.00;4.57;;;;;;;2.51;100.00;99142.41;6162974;28;20585;-68
2024/01/15 05:03:34;;;;;;;5.37;3.40;;;;;;;2.43;100.00;99151.88;6174758;28;20560;-69
2024/01/15 05:06:55;;;;;;;5.63;3.60;;;;;;;2.47;100.00;99152.44;6174203;28;20261;-68
2024/01/15 05:10:15;;;;;;;8.47;3.87;;;;;;;2.43;100.00;99149.22;6176302;28;20229;-67
2024/01/15 05:13:38;;;;;;;10.20;4.27;;;;;;;2.41;100.00;99155.63;6159906;28;20304;-68
2024/01/15 05:16:58;;;;;;;5.77;5.03;;;;;;;2.32;100.00;99151.06;6179469;28;20336;-68
2024/01/15 05:20:19;;;;;;;7.23;3.80;;;;;;;2.19;100.00;99153.88;6185318;28;20312;-68
2024/01/15 05:23:42;;;;;;;9.67;4.23;;;;;;;2.17;100.00;99155.81;6186277;28;20765;-68
2024/01/15 05:27:03;;;;;;;6.40;4.30;;;;;;;2.16;100.00;99148.00;6177668;28;20229;-69
2024/01/15 05:30:25;;;;;;;6.10;3.17;;;;;;;2.21;100.00;99151.13;6170262;28;20709;-68
2024/01/15 05:33:46;;;;;;;6.17;3.27;;;;;;;2.23;100.00;99157.97;6183901;28;20226;-68
2024/01/15 05:37:07;;;;;;;10.13;3.40;;;;;;;2.30;100.00;99142.38;6175061;28;20234;-68
2024/01/15 05:40:28;;;;;;;10.67;2.90;;;;;;;2.31;100.00;99152.91;6173429;28;20702;-68
2024/01/15 05:43:49;;;;;;;12.77;3.90;;;;;;;2.31;100.00;99154.69;6183630;28;20615;-68
2024/01/15 05:47:11;;;;;;;8.73;2.70;;;;;;;2.31;100.00;99144.94;6178377;28;22484;-69
2024/01/15 05:50:32;;;;;;;3.87;2.37;;;;;;;2.28;100.00;99153.13;6172321;28;20316;-67
2024/01/15 05:53:53;;;;;;;7.13;3.60;;;;;;;2.28;100.00;99154.94;6177675;28;20230;-68
2024/01/15 05:57:14;;;;;;;8.07;3.23;;;;;;;2.25;100.00;99155.22;6175001;28;20241;-69
2024/01/15 06:00:35;;;;;;;9.07;3.50;;;;;;;2.30;100.00;99153.84;6168621;28;20237;-68
2024/01/15 06:03:58;;;;;;;14.70;5.13;;;;;;;2.35;100.00;99169.44;6163692;28;20249;-68
2024/01/15 06:07:18;;;;;;;6.63;3.10;;;;;;;2.37;100.00;99175.47;6179806;28;20250;-68
2024/01/15 06:10:39;;;;;;;3.97;2.20;;;;;;;2.29;100.00;99168.13;6176216;28;20250;-68
2024/01/15 06:14:01;;;;;;;4.33;2.93;;;;;;;2.23;100.00;99165.13;6184479;28;20226;-69
2024/01/15 06:17:22;;;;;;;11.80;4.50;;;;;;;2.30;100.00;99174.28;6172360;28;20643;-69
2024/01/15 06:20:44;;;;;;;8.63;3.83;;;;;;;2.32;100.00;99172.31;6177350;28;20600;-68
2024/01/15 06:24:05;;;;;;;8.97;3.37;;;;;;;2.31;100.00;99171.50;6181432;28;20234;-69
2024/01/15 06:27:26;;;;;;;3.33;2.60;;;;;;;2.29;100.00;99169.94;6182825;28;20627;-68
2024/01/15 06:30:47;;;;;;;7.97;3.10;;;;;;;2.30;100.00;99159.16;6173856;28;20242;-68
2024/01/15 06:34:08;;;;;;;5.87;2.50;;;;;;;2.33;100.00;99158.06;6182140;28;20227;-67
2024/01/15 06:37:32;;;;;;;12.67;5.37;;;;;;;2.48;100.00;99162.13;6174025;28;20233;-68
2024/01/15 06:40:53;;;;;;;8.87;3.97;;;;;;;2.44;100.00;99158.03;6175383;28;20276;-68
2024/01/15 06:44:14;;;;;;;10.37;4.83;;;;;;;2.49;100.00;99160.28;6182338;28;21050;-68
2024/01/15 06:47:35;;;;;;;8.90;3.47;;;;;;;2.46;100.00;99173.88;6172445;28;20225;-68
2024/01/15 06:50:56;;;;;;;13.83;4.57;;;;;;;2.53;100.00;99167.88;6169394;28;20238;-68
2024/01/15 06:54:18;;;;;;;6.57;2.90;;;;;;;2.49;100.00;99171.78;6176677;28;20253;-69
2024/01/15 06:57:39;;;;;;;4.17;2.70;;;;;;;2.58;100.00;99184.31;6153191;28;20576;-69
2024/01/15 07:01:00;;;;;;;8.53;2.63;;;;;;;2.53;100.00;99172.34;6163986;28;20255;-69
2024/01/15 07:04:21;;;;;;;6.50;2.60;;;;;;;2.49;100.00;99171.78;6174483;28;20659;-69
2024/01/15 07:07:42;;;;;;;3.43;2.63;;;;;;;2.41;100.00;99177.75;6180487;28;20254;-69
2024/01/15 07:11:06;;;;;;;4.40;3.03;;;;;;;2.37;100.00;99180.78;6177355;28;20237;-70
2024/01/15 07:14:27;;;;;;;4.20;3.17;;;;;;;2.38;100.00;99170.00;6185878;28;20230;-69
2024/01/15 07:17:48;;;;;;;3.93;2.60;;;;;;;2.42;100.00;99178.56;6175765;28;20720;-69
2024/01/15 07:21:09;;;;;;;9.93;1.93;;;;;;;2.51;100.00;99177.81;6176034;28;20241;-69
2024/01/15 07:24:30;;;;;;;7.13;3.20;;;;;;;2.52;100.00;99178.66;6186259;28;20238;-69
2024/01/15 07:27:54;;;;;;;6.30;4.03;;;;;;;2.52;100.00;99183.97;6173986;28;20234;-68
2024/01/15 07:31:16;;;;;;;7.53;2.60;;;;;;;2.62;100.00;99187.56;6163212;28;20233;-68
2024/01/15 07:34:37;;;;;;;6.43;3.30;;;;;;;2.70;100.00;99199.25;6180216;28;20263;-70
2024/01/15 07:37:58;;;;;;;4.97;2.57;;;;;;;2.76;100.00;99196.06;6167881;28;20226;-68
2024/01/15 07:41:19;;;;;;;7.17;3.23;;;;;;;2.82;100.00;99195.56;6175075;28;20252;-68
2024/01/15 07:44:41;;;;;;;5.40;1.70;;;;;;;2.81;100.00;99195.69;6168798;28;20230;-69
2024/01/15 07:48:03;;;;;;;3.10;2.60;;;;;;;2.89;100.00;99188.75;6168039;28;20237;-68
2024/01/15 07:51:24;;;;;;;6.53;2.30;;;;;;;2.93;100.00;99192.84;6186234;28;20710;-69
2024/01/15 07:54:45;;;;;;;6.23;3.10;;;;;;;2.86;100.00;99204.13;6172816;28;20233;-68
2024/01/15 07:58:06;;;;;;;4.00;2.70;;;;;;;2.82;100.00;99202.69;6183132;28;20233;-69
2024/01/15 08:01:28;;;;;;;4.87;1.90;;;;;;;2.90;100.00;99208.22;6172813;28;20237;-69
2024/01/15 08:04:49;;;;;;;2.10;1.87;;;;;;;2.94;100.00;99215.81;6182840;28;20499;-69
2024/01/15 08:08:10;;;;;;;4.27;2.07;;;;;;;2.94;100.00;99210.47;6184143;28;20702;-68
2024/01/15 08:11:31;;;;;;;4.37;2.67;;;;;;;2.94;100.00;99210.47;6186063;28;20326;-67
2024/01/15 08:14:52;;;;;;;4.00;2.40;;;;;;;2.95;100.00;99204.19;6191155;28;20248;-68
2024/01/15 08:18:14;;;;;;;7.77;2.13;;;;;;;2.93;100.00;99203.50;6177433;28;20233;-68
2024/01/15 08:21:35;;;;;;;3.37;2.73;;;;;;;2.86;100.00;99209.44;6184540;28;20320;-68
2024/01/15 08:24:56;;;;;;;2.20;1.93;;;;;;;2.84;100.00;99208.72;6179907;28;20320;-70
2024/01/15 08:28:17;;;;;;;8.27;2.83;;;;;;;2.77;100.00;99208.41;6178577;28;20659;-69
2024/01/15 08:31:38;;;;;;;3.17;2.83;;;;;;;2.91;100.00;99221.41;6172214;28;20245;-67
2024/01/15 08:35:02;;;;;;;3.97;2.30;;;;;;;2.77;100.00;99235.03;6179347;28;20380;-68
2024/01/15 08:38:25;;;;;;;6.23;3.10;;;;;;;2.71;100.00;99227.53;6180262;28;20619;-67
2024/01/15 08:41:47;;;;;;;3.37;2.07;;;;;;;2.68;100.00;99242.91;6174312;28;20225;-69
2024/01/15 08:45:08;;;;;;;2.20;1.37;;;;;;;2.59;100.00;99243.69;6185837;28;20229;-68
2024/01/15 08:48:29;;;;;;;1.70;1.60;;;;;;;2.39;100.00;99253.28;6164961;28;21672;-68
2024/01/15 08:51:52;;;;;;;3.97;2.27;;;;;;;2.32;100.00;99260.91;6180375;28;20237;-67
2024/01/15 08:55:13;;;;;;;2.57;1.63;;;;;;;2.49;100.00;99266.66;6173992;28;20503;-70
2024/01/15 08:58:34;;;;;;;5.07;2.80;;;;;;;2.49;100.00;99256.88;6186052;28;20229;-68
2024/01/15 09:01:56;;;;;;;5.67;2.20;;;;;;;2.39;100.00;99264.78;6175466;28;20229;-69
2024/01/15 09:05:17;;;;;;;2.13;1.80;;;;;;;2.43;100.00;99260.03;6181813;28;20678;-68
2024/01/15 09:08:40;;;;;;;4.63;1.90;;;;;;;2.36;100.00;99251.72;6190768;28;20229;-68
2024/01/15 09:12:01;;;;;;;2.47;1.90;;;;;;;2.29;100.00;99258.50;6178230;28;20698;-71
2024/01/15 09:15:23;;;;;;;3.03;2.33;;;;;;;2.29;100.00;99269.16;6183487;28;20708;-67
2024/01/15 09:18:43;;;;;;;3.90;2.53;;;;;;;2.40;100.00;99270.91;6183673;28;20234;-69
2024/01/15 09:22:05;;;;;;;4.20;1.73;;;;;;;2.32;100.00;99278.66;6174752;28;20240;-69
2024/01/15 09:25:27;;;;;;;4.63;2.87;;;;;;;2.46;100.00;99285.53;6176617;28;20847;-69
2024/01/15 09:28:48;;;;;;;2.57;2.37;;;;;;;2.55;100.00;99282.97;6185149;28;20229;-69
2024/01/15 09:32:09;;;;;;;2.20;1.87;;;;;;;2.44;100.00;99297.13;6170798;28;20230;-68
2024/01/15 09:35:30;;;;;;;3.23;2.30;;;;;;;2.58;100.00;99296.03;6176858;28;20237;-68
2024/01/15 09:38:51;;;;;;;2.63;2.10;;;;;;;2.66;100.00;99298.03;6182511;28;20331;-70
2024/01/15 09:42:13;;;;;;;6.23;3.23;;;;;;;2.65;100.00;99312.34;6171492;28;20238;-68
2024/01/15 09:45:34;;;;;;;9.27;3.33;;;;;;;2.71;100.00;99325.13;6177835;28;20600;-68
2024/01/15 09:48:55;;;;;;;3.43;2.37;;;;;;;2.64;100.00;99319.47;6178401;28;20320;-69
2024/01/15 09:52:19;;;;;;;2.43;1.90;;;;;;;2.77;100.00;99324.63;6172869;28;20253;-69
2024/01/15 09:55:40;;;;;;;2.17;1.60;;;;;;;2.82;100.00;99328.59;6149057;28;20230;-70
2024/01/15 09:59:03;;;;;;;2.30;1.50;;;;;;;2.36;100.00;99323.50;6185495;28;20229;-69
2024/01/15 10:02:24;;;;;;;2.80;2.40;;;;;;;2.14;100.00;99344.78;6174002;28;20233;-69
2024/01/15 10:05:45;;;;;;;2.60;2.40;;;;;;;2.19;100.00;99347.91;6179160;28;20254;-68
2024/01/15 10:09:07;;;;;;;1.53;1.43;;;;;;;2.25;100.00;99342.09;6189971;28;20261;-67
2024/01/15 10:12:29;;;;;;;8.70;2.70;;;;;;;2.27;100.00;99345.47;6178130;28;20608;-67
2024/01/15 10:15:51;;;;;;;4.67;2.37;;;;;;;2.35;100.00;99342.22;6172698;28;20607;-69
2024/01/15 10:19:12;;;;;;;2.07;1.60;;;;;;;2.39;100.00;99341.03;6183734;28;20224;-68
2024/01/15 10:22:32;;;;;;;1.73;1.30;;;;;;;2.28;100.00;99344.53;6178899;28;20234;-69
2024/01/15 10:25:53;;;;;;;4.63;2.27;;;;;;;2.34;100.00;99327.22;6175254;28;20237;-67
2024/01/15 10:29:15;;;;;;;22.67;2.57;;;;;;;2.28;100.00;99346.34;6187490;28;20515;-69
2024/01/15 10:32:37;;;;;;;1.33;1.23;;;;;;;2.32;100.00;99355.75;6175434;28;20510;-67
2024/01/15 10:36:00;;;;;;;1.20;1.10;;;;;;;2.26;100.00;99350.94;6173027;28;20242;-69
2024/01/15 10:39:21;;;;;;;1.97;1.33;;;;;;;2.33;100.00;99360.13;6189750;28;20229;-68
2024/01/15 10:42:42;;;;;;;5.50;2.43;;;;;;;2.26;100.00;99367.72;6178628;28;20234;-68
2024/01/15 10:46:04;;;;;;;2.83;1.77;;;;;;;2.24;100.00;99364.34;6174800;28;20230;-68
2024/01/15 10:49:30;;;;;;;1.93;1.63;;;;;;;2.36;100.00;99365.19;6187628;28;20260;-67
2024/01/15 10:52:51;;;;;;;1.50;1.40;;;;;;;2.15;100.00;99365.06;6177182;28;20230;-66
2024/01/15 10:56:13;;;;;;;1.93;1.50;;;;;;;2.15;100.00;99375.69;6176614;28;20256;-68
2024/01/15 10:59:34;;;;;;;2.47;1.57;;;;;;;2.10;100.00;99377.03;6187732;28;20241;-66
2024/01/15 11:02:56;;;;;;;2.57;1.20;;;;;;;1.90;100.00;99377.75;6177091;28;20238;-69
2024/01/15 11:06:19;;;;;;;4.30;1.73;;;;;;;1.96;100.00;99377.28;6180212;28;20258;-69
2024/01/15 11:09:40;;;;;;;2.07;1.33;;;;;;;2.11;100.00;99371.59;6184371;28;20237;-69
2024/01/15 11:13:01;;;;;;;2.57;1.60;;;;;;;2.08;100.00;99376.31;6177708;28;20230;-69
2024/01/15 11:16:22;;;;;;;1.70;1.10;;;;;;;2.08;100.00;99373.66;6175613;28;20229;-67
2024/01/15 11:19:47;;;;;;;1.13;1.03;;;;;;;2.12;100.00;99383.06;6183499;28;20229;-69
2024/01/15 11:23:10;;;;;;;2.37;1.40;;;;;;;2.25;100.00;99384.63;6184053;28;20612;-69
2024/01/15 11:26:33;;;;;;;1.47;1.20;;;;;;;2.42;100.00;99378.84;6183839;28;20229;-67
2024/01/15 11:30:04;;;;;;;1.87;1.37;;;;;;;2.41;100.00;99381.63;6187956;28;20237;-69
2024/01/15 11:33:33;;;;;;;1.13;1.13;;;;;;;2.30;100.00;99381.63;6185623;28;20229;-68
2024/01/15 11:37:04;;;;;;;1.30;1.20;;;;;;;2.21;100.00;99385.03;6178416;28;20341;-69
2024/01/15 11:40:39;;;;;;;1.90;1.80;;;;;;;2.43;100.00;99382.34;6172625;28;20233;-68
2024/01/15 11:44:00;;;;;;;1.37;1.27;;;;;;;2.61;100.00;99377.38;6189242;28;20221;-69
2024/01/15 11:47:47;;;;;;;1.40;1.30;;;;;;;2.72;100.00;99388.00;6171111;28;20233;-71
2024/01/15 11:51:10;;;;;;;3.50;1.70;;;;;;;2.77;100.00;99391.13;6170505;28;20233;-69
2024/01/15 11:54:34;;;;;;;1.23;1.00;;;;;;;2.84;100.00;99400.28;6168136;28;20238;-69
2024/01/15 11:58:00;;;;;;;3.03;1.77;;;;;;;2.87;100.00;99395.59;6181651;28;20230;-68
2024/01/15 12:01:22;;;;;;;1.70;1.60;;;;;;;2.82;100.00;99397.75;6175377;28;20663;-67
2024/01/15 12:04:43;;;;;;;1.90;1.50;;;;;;;2.76;100.00;99400.06;6180005;28;20237;-67
2024/01/15 12:08:10;;;;;;;1.77;1.30;;;;;;;2.61;100.00;99401.31;6175142;28;20230;-68
2024/01/15 12:11:33;;;;;;;1.70;1.60;;;;;;;2.66;100.00;99399.13;6179416;28;20499;-66
2024/01/15 12:14:55;;;;;;;4.03;2.53;;;;;;;2.73;100.00;99400.34;6190811;28;20229;-66
2024/01/15 12:18:17;;;;;;;1.30;1.20;;;;;;;2.66;100.00;99410.63;6174445;28;20254;-67
2024/01/15 12:21:40;;;;;;;1.20;1.10;;;;;;;2.70;100.00;99411.22;6171065;28;20225;-68
2024/01/15 12:25:00;;;;;;;3.37;1.93;;;;;;;2.57;100.00;99421.97;6178136;28;20241;-68
2024/01/15 12:28:22;;;;;;;3.70;3.13;;;;;;;2.57;100.00;99427.28;6171866;28;20234;-67
2024/01/15 12:31:47;;;;;;;3.53;2.57;;;;;;;2.66;100.00;99425.72;6170515;28;20230;-67
2024/01/15 12:35:08;;;;;;;3.40;2.60;;;;;;;2.73;100.00;99430.44;6177877;28;20233;-67
2024/01/15 12:38:29;;;;;;;8.17;1.53;;;;;;;2.80;100.00;99438.75;6184987;28;20245;-68
2024/01/15 12:41:50;;;;;;;2.80;2.27;;;;;;;2.82;100.00;99440.34;6178983;28;20711;-67
2024/01/15 12:45:13;;;;;;;1.53;1.00;;;;;;;2.70;100.00;99454.63;6184759;28;20222;-68
2024/01/15 12:48:36;;;;;;;1.20;1.10;;;;;;;2.44;100.00;99447.88;6177411;28;20245;-67
2024/01/15 12:51:58;;;;;;;1.90;1.53;;;;;;;2.48;100.00;99443.16;6187534;28;20242;-67
2024/01/15 12:55:19;;;;;;;2.50;1.87;;;;;;;2.41;100.00;99451.59;6163905;28;20493;-67
2024/01/15 12:58:40;;;;;;;1.03;1.03;;;;;;;2.44;100.00;99450.53;6174638;28;20663;-68
2024/01/15 13:02:01;;;;;;;1.27;1.20;;;;;;;2.31;100.00;99457.75;6169455;28;20655;-69
2024/01/15 13:05:23;;;;;;;0.90;0.90;;;;;;;2.58;100.00;99444.97;6173881;28;20312;-69
2024/01/15 13:08:44;;;;;;;4.93;1.10;;;;;;;2.43;100.00;99446.16;6174517;28;20229;-69
2024/01/15 13:12:06;;;;;;;2.03;1.17;;;;;;;2.63;100.00;99449.94;6181150;28;20226;-68
2024/01/15 13:15:27;;;;;;;3.50;1.80;;;;;;;2.70;100.00;99459.09;6185611;28;21667;-69
2024/01/15 13:18:49;;;;;;;1.23;1.17;;;;;;;2.73;100.00;99454.41;6181061;28;20237;-67
2024/01/15 13:22:13;;;;;;;0.67;0.67;;;;;;;2.81;100.00;99469.72;6173745;28;20237;-70
2024/01/15 13:25:35;;;;;;;1.90;1.00;;;;;;;2.79;100.00;99464.53;6174233;28;20285;-68
2024/01/15 13:28:56;;;;;;;0.97;0.97;;;;;;;2.82;100.00;99469.59;6184168;28;20519;-68
2024/01/15 13:32:25;;;;;;;2.73;1.40;;;;;;;2.95;100.00;99472.13;6167789;28;20238;-68
2024/01/15 13:35:49;;;;;;;1.67;1.33;;;;;;;2.68;100.00;99472.53;6190035;28;20225;-69
2024/01/15 13:39:11;;;;;;;1.20;1.10;;;;;;;2.76;100.00;99475.41;6183883;28;20760;-69
2024/01/15 13:42:32;;;;;;;1.40;1.30;;;;;;;2.82;100.00;99482.06;6189782;28;20662;-69
2024/01/15 13:45:53;;;;;;;1.37;1.30;;;;;;;2.75;100.00;99484.38;6185408;28;20505;-70
2024/01/15 13:49:14;;;;;;;1.67;1.57;;;;;;;2.78;100.00;99489.44;6185610;28;20709;-69
2024/01/15 13:52:36;;;;;;;5.27;4.77;;;;;;;2.78;100.00;99493.91;6187726;28;20242;-69
2024/01/15 13:55:58;;;;;;;3.00;2.50;;;;;;;2.88;100.00;99497.56;6183392;28;20269;-69
2024/01/15 13:59:19;;;;;;;2.07;1.77;;;;;;;2.90;100.00;99495.63;6176417;28;20225;-68
2024/01/15 14:02:41;;;;;;;8.33;6.03;;;;;;;2.87;100.00;99490.53;6171151;28;20262;-68
2024/01/15 14:06:02;;;;;;;2.90;2.20;;;;;;;2.56;100.00;99497.44;6172091;28;20639;-67
2024/01/15 14:09:25;;;;;;;1.00;1.00;;;;;;;2.49;100.00;99501.53;6185702;28;20475;-68
2024/01/15 14:12:47;;;;;;;1.77;1.67;;;;;;;2.69;100.00;99498.13;6174295;28;20608;-68
2024/01/15 14:16:09;;;;;;;3.10;1.57;;;;;;;2.72;100.00;99503.22;6177258;28;20226;-68
2024/01/15 14:19:30;;;;;;;5.10;1.57;;;;;;;2.84;100.00;99504.91;6185652;28;20233;-69
2024/01/15 14:22:50;;;;;;;1.37;1.27;;;;;;;2.56;100.00;99517.84;6178513;28;20261;-68
2024/01/15 14:26:12;;;;;;;1.73;1.60;;;;;;;2.67;100.00;99507.22;6169858;28;20710;-68
2024/01/15 14:29:34;;;;;;;1.67;1.57;;;;;;;2.59;100.00;99514.97;6179365;28;20222;-68
2024/01/15 14:32:55;;;;;;;3.63;2.13;;;;;;;2.50;100.00;99521.00;6178308;28;20599;-69
2024/01/15 14:36:16;;;;;;;2.33;2.13;;;;;;;2.70;100.00;99526.44;6175738;28;20627;-68
2024/01/15 14:39:37;;;;;;;1.63;1.30;;;;;;;2.35;100.00;99523.88;6190739;28;20229;-69
2024/01/15 14:42:58;;;;;;;3.10;1.97;;;;;;;2.37;100.00;99537.91;6178002;28;20237;-69
2024/01/15 14:46:21;;;;;;;2.03;1.40;;;;;;;2.50;100.00;99540.47;6176311;28;20467;-70
2024/01/15 14:49:41;;;;;;;1.53;1.43;;;;;;;2.37;100.00;99542.38;6187486;28;20226;-69
2024/01/15 14:53:03;;;;;;;1.20;1.10;;;;;;;2.33;100.00;99538.25;6161637;28;20226;-69
2024/01/15 14:56:24;;;;;;;1.50;1.40;;;;;;;2.11;100.00;99549.66;6176670;28;20228;-68
2024/01/15 14:59:44;;;;;;;1.67;1.57;;;;;;;2.00;100.00;99549.59;6191453;28;20234;-68
2024/01/15 15:03:06;;;;;;;3.07;1.70;;;;;;;2.07;100.00;99558.81;6177962;28;20238;-68
2024/01/15 15:06:27;;;;;;;2.07;1.50;;;;;;;1.94;100.00;99571.31;6186998;28;20222;-68
2024/01/15 15:09:50;;;;;;;2.20;2.00;;;;;;;1.85;100.00;99566.72;6186282;28;20234;-67
2024/01/15 15:13:11;;;;;;;2.20;2.03;;;;;;;1.72;100.00;99571.22;6180808;28;20541;-68
2024/01/15 15:16:32;;;;;;;2.10;1.90;;;;;;;1.72;100.00;99573.88;6177181;28;20232;-68
2024/01/15 15:19:55;;;;;;;2.47;1.97;;;;;;;1.71;100.00;99568.69;6184792;28;20229;-68
2024/01/15 15:23:16;;;;;;;1.70;1.60;;;;;;;1.84;100.00;99580.09;6171891;28;20308;-68
2024/01/15 15:26:37;;;;;;;1.50;1.40;;;;;;;1.79;100.00;99593.72;6184420;28;20246;-69
2024/01/15 15:29:58;;;;;;;1.87;1.77;;;;;;;1.74;100.00;99598.53;6191170;28;20242;-69
2024/01/15 15:33:19;;;;;;;1.87;1.77;;;;;;;1.79;100.00;99599.03;6186332;28;20234;-69
2024/01/15 15:36:41;;;;;;;1.73;1.63;;;;;;;1.69;100.00;99608.63;6181421;28;20230;-69
2024/01/15 15:40:03;;;;;;;2.33;2.00;;;;;;;1.70;100.00;99612.13;6189920;28;20232;-68
2024/01/15 15:43:25;;;;;;;9.93;4.13;;;;;;;1.80;100.00;99608.69;6178497;28;20233;-69
2024/01/15 15:46:45;;;;;;;4.13;2.60;;;;;;;1.78;100.00;99613.28;6186540;28;20233;-67